Time;durP1;ratioP1;P1;durP2;ratioP2;P2;SDS_P1;SDS_P2;PMS_P1;PMS_P2;Temp;Humidity;BMP_temperature;BMP_pressure;BME280_temperature;BME280_humidity;BME280_pressure;Samples;Min_cycle;Max_cycle;Signal;HPM_P1;HPM_P2
2022/02/06 00:01:26;;;;;;;4.60;1.60;;;6.00;81.50;;;;;;4997578;28;20030;-70
2022/02/06 00:03:57;;;;;;;4.10;1.40;;;6.10;81.20;;;;;;4997423;28;20113;-71
2022/02/06 00:06:23;;;;;;;3.35;1.30;;;6.20;80.00;;;;;;4997769;28;20053;-75
2022/02/06 00:08:48;;;;;;;4.88;1.95;;;6.10;79.60;;;;;;4995933;28;20068;-71
2022/02/06 00:11:14;;;;;;;3.70;1.38;;;6.10;79.50;;;;;;4998195;28;20044;-75
2022/02/06 00:13:40;;;;;;;4.47;1.75;;;6.00;79.90;;;;;;4997799;28;20815;-69
2022/02/06 00:16:05;;;;;;;5.65;1.45;;;6.00;80.00;;;;;;4997618;28;20030;-75
2022/02/06 00:18:31;;;;;;;6.90;1.50;;;6.00;80.10;;;;;;4990766;28;20040;-72
2022/02/06 00:21:01;;;;;;;3.55;1.23;;;6.00;80.00;;;;;;5000568;28;20116;-72
2022/02/06 00:23:29;;;;;;;4.28;1.50;;;6.10;79.60;;;;;;4998320;28;20026;-73
2022/02/06 00:28:37;;;;;;;4.35;1.38;;;6.20;78.40;;;;;;4993699;28;20030;-77
2022/02/06 00:33:41;;;;;;;6.03;1.80;;;6.30;77.90;;;;;;5001686;28;20042;-76
2022/02/06 00:39:05;;;;;;;4.80;1.95;;;6.50;77.80;;;;;;4962363;28;20058;-76
2022/02/06 00:41:33;;;;;;;5.03;1.60;;;6.50;77.50;;;;;;4981060;28;20037;-75
2022/02/06 00:44:04;;;;;;;7.43;1.65;;;6.50;77.40;;;;;;4998647;28;20037;-76
2022/02/06 00:46:36;;;;;;;8.45;1.58;;;6.50;76.90;;;;;;4995154;28;20034;-71
2022/02/06 00:49:11;;;;;;;4.00;1.48;;;6.50;76.50;;;;;;4980077;28;20064;-72
2022/02/06 00:51:50;;;;;;;4.88;2.00;;;6.60;77.00;;;;;;4998941;28;20044;-73
2022/02/06 00:54:16;;;;;;;4.55;1.52;;;6.60;76.30;;;;;;4979081;28;20047;-71
2022/02/06 00:56:41;;;;;;;3.70;1.23;;;6.70;76.10;;;;;;4993958;28;20034;-71
2022/02/06 00:59:08;;;;;;;5.55;1.52;;;6.60;75.80;;;;;;4992843;28;20049;-74
2022/02/06 01:01:36;;;;;;;6.50;1.40;;;6.60;76.10;;;;;;4994901;28;20101;-72
2022/02/06 01:04:02;;;;;;;4.10;1.02;;;6.60;77.00;;;;;;4978785;28;20524;-74
2022/02/06 01:06:28;;;;;;;4.05;1.27;;;6.60;76.80;;;;;;4989124;28;20022;-75
2022/02/06 01:08:53;;;;;;;3.47;1.08;;;6.60;76.60;;;;;;4992162;28;20411;-75
2022/02/06 01:11:19;;;;;;;2.45;1.20;;;6.60;75.90;;;;;;4993957;28;20042;-75
2022/02/06 01:16:54;;;;;;;3.00;1.30;;;6.60;76.40;;;;;;4975291;28;20047;-75
2022/02/06 01:19:24;;;;;;;6.55;1.13;;;6.70;76.50;;;;;;4982727;28;20037;-75
2022/02/06 01:22:02;;;;;;;4.53;1.25;;;6.70;76.40;;;;;;4998004;28;20646;-74
2022/02/06 01:24:59;;;;;;;5.65;1.55;;;6.70;76.80;;;;;;4995224;28;20048;-73
2022/02/06 01:27:35;;;;;;;3.17;1.27;;;6.70;77.40;;;;;;4993383;28;20038;-74
2022/02/06 01:30:12;;;;;;;;;;;6.70;77.40;;;;;;4993502;28;20543;-74
2022/02/06 01:32:47;;;;;;;2.40;1.10;;;6.70;77.10;;;;;;4986003;28;19920;-74
2022/02/06 01:35:17;;;;;;;6.57;1.50;;;6.60;77.30;;;;;;4994972;28;20038;-70
2022/02/06 01:38:03;;;;;;;5.53;1.00;;;6.40;78.10;;;;;;4982214;28;20873;-73
2022/02/06 01:43:06;;;;;;;9.57;1.50;;;6.40;78.60;;;;;;4996511;28;20029;-73
2022/02/06 02:08:07;;;;;;;3.60;1.48;;;6.50;80.80;;;;;;4994213;28;20046;-74
2022/02/06 02:12:46;;;;;;;5.50;1.35;;;6.40;81.30;;;;;;4995461;28;20026;-75
2022/02/06 02:20:47;;;;;;;3.45;1.25;;;6.30;82.40;;;;;;5000575;28;20053;-74
2022/02/06 02:29:21;;;;;;;3.55;0.90;;;6.30;83.10;;;;;;5001083;28;20030;-74
2022/02/06 02:48:01;;;;;;;2.70;0.80;;;6.00;87.10;;;;;;5000022;28;20034;-74
2022/02/06 02:50:27;;;;;;;4.45;1.20;;;6.10;86.70;;;;;;5000274;28;20409;-73
2022/02/06 02:53:07;;;;;;;5.15;1.60;;;6.10;86.80;;;;;;4998976;28;20117;-75
2022/02/06 02:55:59;;;;;;;4.65;1.20;;;6.10;87.20;;;;;;4987247;28;20773;-75
2022/02/06 02:58:46;;;;;;;3.22;1.23;;;6.10;87.90;;;;;;4998140;28;20041;-75
2022/02/06 03:03:40;;;;;;;4.90;1.23;;;6.10;89.30;;;;;;4995530;28;20811;-76
2022/02/06 03:06:08;;;;;;;3.58;1.60;;;6.00;89.50;;;;;;4995104;28;20022;-76
2022/02/06 03:08:36;;;;;;;4.25;1.27;;;6.00;90.00;;;;;;5002008;28;20851;-75
2022/02/06 03:11:07;;;;;;;6.22;1.40;;;5.90;90.30;;;;;;4985719;28;20026;-74
2022/02/06 03:13:50;;;;;;;5.03;1.10;;;5.90;90.40;;;;;;4982924;28;20038;-76
2022/02/06 03:16:21;;;;;;;6.60;1.48;;;5.70;90.60;;;;;;4996664;28;20084;-76
2022/02/06 03:18:59;;;;;;;7.20;1.25;;;5.70;91.20;;;;;;4988008;28;20044;-71
2022/02/06 03:21:30;;;;;;;7.82;1.85;;;5.70;90.90;;;;;;4983918;28;20042;-75
2022/02/06 03:24:06;;;;;;;3.83;1.40;;;5.70;91.10;;;;;;4984323;28;20956;-75
2022/02/06 03:26:32;;;;;;;3.67;1.30;;;5.70;90.90;;;;;;4994746;28;20041;-75
2022/02/06 03:28:58;;;;;;;3.28;1.27;;;5.70;90.90;;;;;;5000150;28;20034;-75
2022/02/06 03:31:24;;;;;;;6.90;1.77;;;5.60;91.00;;;;;;4997921;28;20065;-75
2022/02/06 03:33:51;;;;;;;3.38;1.38;;;5.60;91.20;;;;;;4996805;28;20117;-75
2022/02/06 03:36:18;;;;;;;7.35;1.67;;;5.70;91.30;;;;;;4995890;28;20092;-75
2022/02/06 03:38:46;;;;;;;3.63;1.35;;;5.70;91.40;;;;;;4984538;28;20129;-75
2022/02/06 03:41:13;;;;;;;2.13;1.27;;;5.80;91.30;;;;;;4994240;28;20061;-75
2022/02/06 03:49:05;;;;;;;5.07;1.48;;;5.80;91.70;;;;;;4978275;28;20482;-74
2022/02/06 03:51:36;;;;;;;2.97;1.40;;;5.90;91.60;;;;;;4997857;28;20034;-75
2022/02/06 03:54:03;;;;;;;3.03;1.60;;;5.80;91.50;;;;;;4994762;28;20037;-75
2022/02/06 03:56:30;;;;;;;6.40;1.90;;;5.90;92.00;;;;;;4987622;28;20046;-74
2022/02/06 03:58:57;;;;;;;10.30;1.83;;;5.80;91.90;;;;;;4982775;28;20041;-74
2022/02/06 04:01:22;;;;;;;9.15;1.80;;;5.90;92.20;;;;;;4982620;28;20717;-75
2022/02/06 04:03:48;;;;;;;9.15;1.55;;;5.90;92.10;;;;;;4994776;28;20061;-75
2022/02/06 04:06:14;;;;;;;6.20;1.58;;;5.80;92.10;;;;;;4998405;28;20779;-75
2022/02/06 04:08:41;;;;;;;3.25;1.48;;;5.80;92.20;;;;;;5003239;28;20038;-75
2022/02/06 04:11:18;;;;;;;5.13;1.65;;;5.70;92.50;;;;;;4997715;28;20038;-74
2022/02/06 04:14:05;;;;;;;8.60;2.92;;;5.60;92.60;;;;;;4992318;28;20041;-74
2022/02/06 04:16:49;;;;;;;5.85;1.70;;;5.60;93.00;;;;;;4998427;28;20038;-74
2022/02/06 04:19:24;;;;;;;6.18;1.85;;;5.70;92.90;;;;;;4997143;28;20056;-74
2022/02/06 04:21:51;;;;;;;8.63;1.90;;;5.70;92.90;;;;;;4984162;28;20041;-75
2022/02/06 04:24:18;;;;;;;5.32;1.77;;;5.80;92.60;;;;;;4989707;28;20038;-75
2022/02/06 04:26:43;;;;;;;6.97;2.03;;;5.80;92.60;;;;;;4999828;28;20065;-74
2022/02/06 04:29:09;;;;;;;5.90;1.52;;;5.80;92.90;;;;;;4998587;28;20034;-74
2022/02/06 04:31:38;;;;;;;4.15;1.63;;;5.90;92.80;;;;;;4982382;28;20038;-74
2022/02/06 04:34:04;;;;;;;7.75;1.80;;;5.80;92.40;;;;;;4993235;28;20041;-75
2022/02/06 04:36:37;;;;;;;4.45;1.50;;;5.80;92.70;;;;;;4995831;28;20026;-75
2022/02/06 05:14:17;;;;;;;5.65;1.52;;;6.00;93.20;;;;;;4992074;28;20493;-75
2022/02/06 05:16:37;;;;;;;3.92;1.50;;;6.00;93.30;;;;;;4993952;28;20635;-75
2022/02/06 05:21:58;;;;;;;4.88;1.60;;;6.10;93.00;;;;;;4991328;28;20133;-75
2022/02/06 05:27:12;;;;;;;5.95;1.77;;;6.00;93.30;;;;;;5002021;28;20025;-75
2022/02/06 05:32:38;;;;;;;2.95;1.20;;;5.90;93.50;;;;;;4947128;28;20050;-73
2022/02/06 05:35:06;;;;;;;3.55;1.10;;;5.90;93.60;;;;;;4999127;28;20036;-75
2022/02/06 05:37:32;;;;;;;5.25;1.40;;;5.90;94.00;;;;;;4983285;28;20033;-75
2022/02/06 05:39:57;;;;;;;5.82;1.63;;;5.90;93.90;;;;;;4994871;28;20141;-75
2022/02/06 05:42:23;;;;;;;4.40;1.70;;;6.00;93.90;;;;;;4990615;28;20655;-75
2022/02/06 05:44:56;;;;;;;3.30;1.77;;;6.10;93.90;;;;;;4978113;28;20085;-75
2022/02/06 05:47:27;;;;;;;5.57;1.17;;;6.20;93.70;;;;;;4981150;28;20081;-75
2022/02/06 05:49:54;;;;;;;2.78;1.27;;;6.30;93.40;;;;;;4996797;28;20045;-75
2022/02/06 05:52:20;;;;;;;4.70;1.35;;;6.30;93.60;;;;;;4995543;28;20042;-75
2022/02/06 05:54:47;;;;;;;2.67;1.40;;;6.30;93.20;;;;;;4998627;28;20133;-75
2022/02/06 05:57:12;;;;;;;2.80;1.20;;;6.30;93.40;;;;;;4993138;28;20400;-75
2022/02/06 05:59:38;;;;;;;5.22;1.65;;;6.20;93.50;;;;;;4994226;28;20033;-74
2022/02/06 06:02:04;;;;;;;5.40;1.38;;;6.00;93.90;;;;;;4982788;28;20033;-75
2022/02/06 06:04:30;;;;;;;7.68;1.52;;;6.00;94.10;;;;;;4979783;28;20039;-75
2022/02/06 06:06:56;;;;;;;3.78;1.30;;;6.10;94.20;;;;;;4995419;28;20112;-75
2022/02/06 06:09:21;;;;;;;5.10;1.35;;;6.10;94.20;;;;;;4994660;28;20026;-75
2022/02/06 06:11:47;;;;;;;4.65;1.23;;;6.10;94.00;;;;;;4982701;28;20152;-74
2022/02/06 06:14:13;;;;;;;2.72;1.40;;;6.20;94.10;;;;;;4996354;28;20143;-75
2022/02/06 06:16:39;;;;;;;5.00;1.60;;;6.30;93.90;;;;;;4993212;28;20041;-75
2022/02/06 06:19:05;;;;;;;3.40;1.40;;;6.30;93.80;;;;;;4981498;28;20914;-75
2022/02/06 06:21:38;;;;;;;3.30;1.27;;;6.30;93.90;;;;;;4995792;28;20037;-75
2022/02/06 06:24:04;;;;;;;6.85;1.60;;;6.30;94.00;;;;;;4999844;28;20038;-75
2022/02/06 06:26:34;;;;;;;3.17;1.20;;;6.30;93.90;;;;;;4989613;28;20041;-75
2022/02/06 06:29:00;;;;;;;3.30;1.50;;;6.40;93.70;;;;;;4980342;28;20044;-75
2022/02/06 06:31:27;;;;;;;3.85;1.45;;;6.40;93.70;;;;;;5000291;28;20025;-75
2022/02/06 06:33:53;;;;;;;4.70;1.40;;;6.30;93.90;;;;;;4996242;28;20155;-75
2022/02/06 06:36:22;;;;;;;5.70;1.20;;;6.20;94.20;;;;;;4996381;28;20092;-74
2022/02/06 06:38:50;;;;;;;7.22;1.67;;;6.20;94.50;;;;;;4993494;28;20101;-75
2022/02/06 06:41:16;;;;;;;3.33;1.40;;;6.20;94.50;;;;;;4991114;28;20033;-75
2022/02/06 06:43:41;;;;;;;4.13;1.38;;;6.10;94.40;;;;;;4994064;28;20057;-75
2022/02/06 06:46:07;;;;;;;3.00;1.52;;;6.10;94.80;;;;;;4978280;28;20789;-74
2022/02/06 06:48:33;;;;;;;3.38;1.48;;;6.10;94.70;;;;;;4958543;28;20058;-74
2022/02/06 06:50:59;;;;;;;4.82;1.48;;;6.30;94.60;;;;;;4996937;28;20048;-73
2022/02/06 06:53:24;;;;;;;4.25;1.58;;;6.30;94.30;;;;;;4977832;28;20037;-73
2022/02/06 06:55:57;;;;;;;3.38;1.20;;;6.30;94.40;;;;;;4996966;28;20038;-70
2022/02/06 06:58:29;;;;;;;2.78;1.50;;;6.40;94.30;;;;;;4991544;28;20049;-73
2022/02/06 07:03:32;;;;;;;4.15;1.27;;;6.30;94.40;;;;;;4977730;28;20145;-73
2022/02/06 07:05:58;;;;;;;4.18;1.13;;;6.20;94.20;;;;;;4984929;28;20042;-73
2022/02/06 07:08:24;;;;;;;4.50;1.48;;;6.10;94.80;;;;;;4996551;28;20062;-73
2022/02/06 07:10:51;;;;;;;4.47;2.90;;;6.10;94.90;;;;;;4996465;28;20042;-75
2022/02/06 07:13:22;;;;;;;6.18;1.77;;;6.20;95.00;;;;;;4998518;28;20033;-72
2022/02/06 07:15:49;;;;;;;6.53;1.60;;;6.20;94.50;;;;;;4978502;28;20177;-71
2022/02/06 07:18:15;;;;;;;4.53;2.92;;;6.30;94.60;;;;;;5000178;28;20038;-72
2022/02/06 07:20:40;;;;;;;4.40;1.95;;;6.30;94.60;;;;;;4992712;28;20104;-73
2022/02/06 07:23:08;;;;;;;10.02;1.88;;;6.30;94.60;;;;;;4996471;28;20088;-71
2022/02/06 07:25:36;;;;;;;4.15;1.58;;;6.40;94.30;;;;;;4996301;28;20068;-73
2022/02/06 07:28:03;;;;;;;2.50;2.00;;;6.40;94.40;;;;;;4997341;28;20038;-72
2022/02/06 07:30:28;;;;;;;3.47;1.02;;;6.40;94.50;;;;;;4994323;28;20561;-71
2022/02/06 07:32:54;;;;;;;5.53;1.40;;;6.40;94.30;;;;;;4985426;28;20025;-71
2022/02/06 07:35:20;;;;;;;2.95;1.33;;;6.40;94.30;;;;;;4996013;28;20037;-71
2022/02/06 07:37:49;;;;;;;5.45;2.75;;;6.40;94.50;;;;;;4995129;28;20049;-70
2022/02/06 07:40:15;;;;;;;4.53;2.05;;;6.50;94.20;;;;;;4992391;28;20033;-72
2022/02/06 07:42:41;;;;;;;3.55;1.35;;;6.50;94.20;;;;;;4993731;28;20100;-73
2022/02/06 07:45:14;;;;;;;4.32;2.65;;;6.60;93.90;;;;;;4980302;28;20030;-73
2022/02/06 07:47:42;;;;;;;18.92;8.40;;;6.70;93.70;;;;;;4982671;28;20218;-73
2022/02/06 07:50:09;;;;;;;18.30;8.02;;;6.80;93.50;;;;;;4999130;28;20077;-73
2022/02/06 07:52:35;;;;;;;12.98;5.93;;;6.80;93.40;;;;;;4993139;28;20026;-73
2022/02/06 07:55:03;;;;;;;15.70;8.00;;;6.90;93.40;;;;;;4995228;28;20508;-71
2022/02/06 07:57:29;;;;;;;19.95;6.93;;;6.90;93.40;;;;;;4993729;28;20030;-73
2022/02/06 07:59:55;;;;;;;2.72;1.55;;;7.00;93.10;;;;;;4990323;28;20040;-73
2022/02/06 08:02:20;;;;;;;4.70;2.33;;;7.00;92.90;;;;;;4999417;28;20464;-70
2022/02/06 08:04:48;;;;;;;2.20;1.25;;;7.00;93.00;;;;;;4994751;28;20081;-72
2022/02/06 08:07:14;;;;;;;8.57;4.43;;;6.90;93.00;;;;;;4982524;28;20457;-73
2022/02/06 08:12:06;;;;;;;26.23;9.77;;;6.90;93.10;;;;;;4979611;28;20041;-73
2022/02/06 08:17:23;;;;;;;19.00;8.10;;;6.90;93.20;;;;;;4995665;28;20115;-70
2022/02/06 08:19:49;;;;;;;14.48;5.05;;;6.90;93.30;;;;;;4994642;28;20449;-72
2022/02/06 08:22:15;;;;;;;14.68;7.63;;;6.90;93.00;;;;;;4979640;28;20034;-71
2022/02/06 08:24:41;;;;;;;19.33;8.15;;;7.10;93.10;;;;;;4975458;28;20612;-72
2022/02/06 08:27:08;;;;;;;27.48;11.35;;;7.10;93.10;;;;;;4999745;28;20038;-71
2022/02/06 08:29:36;;;;;;;15.18;6.50;;;7.20;92.80;;;;;;4997856;28;20634;-70
2022/02/06 08:32:05;;;;;;;13.27;5.50;;;7.20;92.50;;;;;;4980867;28;20034;-71
2022/02/06 08:34:30;;;;;;;14.68;6.88;;;7.10;92.80;;;;;;4995937;28;20096;-71
2022/02/06 08:36:56;;;;;;;10.73;4.15;;;7.30;92.70;;;;;;4993861;28;20120;-72
2022/02/06 08:39:22;;;;;;;9.68;3.90;;;7.30;92.00;;;;;;4996272;28;20041;-71
2022/02/06 08:41:47;;;;;;;4.10;1.77;;;7.40;92.40;;;;;;4963629;28;20134;-72
2022/02/06 08:44:13;;;;;;;10.95;4.85;;;7.50;92.10;;;;;;4982102;28;20544;-71
2022/02/06 08:46:39;;;;;;;3.75;1.60;;;7.50;91.90;;;;;;4982651;28;20048;-72
2022/02/06 08:49:04;;;;;;;18.42;7.25;;;7.50;92.10;;;;;;4993799;28;20027;-73
2022/02/06 08:51:30;;;;;;;5.05;1.45;;;7.60;92.30;;;;;;4992746;28;20484;-72
2022/02/06 08:53:56;;;;;;;11.02;4.35;;;7.60;92.20;;;;;;4984008;28;20049;-73
2022/02/06 08:56:26;;;;;;;9.48;3.42;;;7.60;92.30;;;;;;4979407;28;20044;-73
2022/02/06 08:58:52;;;;;;;14.80;5.75;;;7.70;92.20;;;;;;4978710;28;20034;-73
2022/02/06 09:01:18;;;;;;;24.40;7.63;;;7.70;91.90;;;;;;4996502;28;20717;-73
2022/02/06 09:03:43;;;;;;;18.83;8.05;;;7.70;92.00;;;;;;4989870;28;20022;-73
2022/02/06 09:06:11;;;;;;;25.27;9.43;;;7.70;92.20;;;;;;4993804;28;20116;-71
2022/02/06 09:08:37;;;;;;;8.77;3.60;;;7.80;92.10;;;;;;4979950;28;20068;-72
2022/02/06 09:11:03;;;;;;;6.72;3.13;;;7.80;92.10;;;;;;4997561;28;20096;-72
2022/02/06 09:13:30;;;;;;;6.00;3.33;;;7.70;92.00;;;;;;4976383;28;20157;-72
2022/02/06 09:15:56;;;;;;;6.82;3.63;;;7.50;92.60;;;;;;4994776;28;20037;-72
2022/02/06 09:18:22;;;;;;;12.93;3.97;;;7.60;92.80;;;;;;4982624;28;20421;-72
2022/02/06 09:20:47;;;;;;;7.43;2.65;;;7.60;92.80;;;;;;4990710;28;20108;-72
2022/02/06 09:23:13;;;;;;;8.15;2.55;;;7.70;93.00;;;;;;4979755;28;20026;-73
2022/02/06 09:25:39;;;;;;;6.47;1.80;;;7.60;92.40;;;;;;4996983;28;20049;-71
2022/02/06 09:28:05;;;;;;;2.90;1.52;;;7.60;92.80;;;;;;4977763;28;20034;-72
2022/02/06 09:30:31;;;;;;;7.18;2.10;;;7.50;92.60;;;;;;4996481;28;20819;-72
2022/02/06 09:35:23;;;;;;;4.75;1.10;;;7.50;92.90;;;;;;4997178;28;20034;-72
2022/02/06 09:37:50;;;;;;;9.85;2.70;;;7.50;93.30;;;;;;4994908;28;20221;-72
2022/02/06 09:40:17;;;;;;;9.80;2.38;;;7.50;93.00;;;;;;4997061;28;20056;-72
2022/02/06 09:42:52;;;;;;;8.00;1.70;;;7.60;93.00;;;;;;4993773;28;20026;-72
2022/02/06 09:45:24;;;;;;;12.05;2.78;;;7.80;92.90;;;;;;4991373;28;20030;-71
2022/02/06 09:47:51;;;;;;;12.15;2.92;;;8.00;92.60;;;;;;4991325;28;20049;-71
2022/02/06 09:50:16;;;;;;;8.45;3.10;;;8.20;92.30;;;;;;4964560;28;20729;-72
2022/02/06 09:52:44;;;;;;;11.52;2.78;;;8.50;92.00;;;;;;4993893;28;20041;-72
2022/02/06 09:55:16;;;;;;;8.15;2.38;;;8.60;91.60;;;;;;4994946;28;20033;-71
2022/02/06 10:00:19;;;;;;;8.50;1.90;;;8.60;91.40;;;;;;5000573;28;20476;-72
2022/02/06 10:02:47;;;;;;;8.10;2.17;;;8.80;91.10;;;;;;4990197;28;20058;-71
2022/02/06 10:05:15;;;;;;;7.07;1.83;;;8.90;90.70;;;;;;4971722;28;20064;-72
2022/02/06 10:07:52;;;;;;;6.32;1.92;;;9.20;90.20;;;;;;4977754;28;20103;-72
2022/02/06 10:10:22;;;;;;;2.67;1.20;;;9.50;89.30;;;;;;4993363;28;20053;-72
2022/02/06 10:12:52;;;;;;;2.83;1.30;;;9.60;88.30;;;;;;4992145;28;20095;-72
2022/02/06 10:15:19;;;;;;;5.32;1.45;;;9.60;87.80;;;;;;4977527;28;20038;-72
2022/02/06 10:17:46;;;;;;;3.20;1.30;;;9.50;87.10;;;;;;4988066;28;20103;-72
2022/02/06 10:20:18;;;;;;;3.55;0.90;;;9.20;88.00;;;;;;4994564;28;20046;-72
2022/02/06 10:23:20;;;;;;;2.72;1.30;;;9.10;88.70;;;;;;4989587;28;20494;-73
2022/02/06 10:25:47;;;;;;;6.75;2.80;;;9.10;88.80;;;;;;4993680;28;20121;-71
2022/02/06 10:30:59;;;;;;;2.08;0.80;;;9.30;88.30;;;;;;4988341;28;20057;-72
2022/02/06 10:33:52;;;;;;;1.55;0.98;;;9.30;86.60;;;;;;4977834;28;20038;-73
2022/02/06 10:36:23;;;;;;;2.38;1.05;;;9.20;87.40;;;;;;4998501;28;20042;-73
2022/02/06 10:39:01;;;;;;;2.28;0.70;;;9.10;88.20;;;;;;4989597;28;20046;-72
2022/02/06 10:41:27;;;;;;;1.55;1.25;;;9.00;88.40;;;;;;4995713;28;20066;-72
2022/02/06 10:44:07;;;;;;;0.90;0.70;;;9.00;88.40;;;;;;4994277;28;20860;-72
2022/02/06 10:46:55;;;;;;;4.63;1.00;;;8.90;88.70;;;;;;4997446;28;20066;-72
2022/02/06 10:49:22;;;;;;;1.38;1.25;;;8.90;88.90;;;;;;4996956;28;20041;-72
2022/02/06 10:51:59;;;;;;;2.45;1.33;;;9.00;89.10;;;;;;4989265;28;20046;-72
2022/02/06 10:54:28;;;;;;;1.10;0.95;;;9.10;88.60;;;;;;4956455;28;20097;-72
2022/02/06 10:57:01;;;;;;;5.00;1.60;;;9.20;87.20;;;;;;4975668;28;20128;-72
2022/02/06 10:59:28;;;;;;;2.22;1.23;;;9.20;86.90;;;;;;4973495;28;20030;-72
2022/02/06 11:01:54;;;;;;;2.10;0.60;;;9.20;87.30;;;;;;4995399;28;20061;-72
2022/02/06 11:04:32;;;;;;;2.97;1.02;;;9.20;86.50;;;;;;4981971;28;20136;-72
2022/02/06 11:07:19;;;;;;;2.38;0.85;;;9.20;86.00;;;;;;4995714;28;20847;-72
2022/02/06 11:09:45;;;;;;;1.30;1.08;;;9.20;86.50;;;;;;4994238;28;20034;-72
2022/02/06 11:12:15;;;;;;;2.35;0.90;;;9.10;86.80;;;;;;4980930;28;20041;-72
2022/02/06 11:14:48;;;;;;;3.38;1.48;;;9.20;86.80;;;;;;4981200;28;20046;-72
2022/02/06 11:17:22;;;;;;;1.08;0.70;;;9.30;86.00;;;;;;4976166;28;20030;-72
2022/02/06 11:20:01;;;;;;;1.70;1.17;;;9.10;85.20;;;;;;4978235;28;20046;-72
2022/02/06 11:22:27;;;;;;;1.38;0.70;;;9.20;85.50;;;;;;4998893;28;20781;-72
2022/02/06 11:24:53;;;;;;;0.90;0.77;;;9.20;85.50;;;;;;4998878;28;20112;-72
2022/02/06 11:27:20;;;;;;;1.20;0.55;;;9.20;85.30;;;;;;5001610;28;20141;-73
2022/02/06 11:29:46;;;;;;;1.27;0.73;;;9.10;85.10;;;;;;4997163;28;20038;-72
2022/02/06 11:32:14;;;;;;;0.82;0.52;;;9.10;85.40;;;;;;4981576;28;20033;-72
2022/02/06 11:34:44;;;;;;;2.08;0.60;;;9.10;86.00;;;;;;4995260;28;20447;-72
2022/02/06 11:43:45;;;;;;;1.20;0.82;;;9.20;85.50;;;;;;4994851;28;20026;-72
2022/02/06 11:46:28;;;;;;;0.47;0.47;;;9.10;84.60;;;;;;4997026;28;20818;-72
2022/02/06 11:49:05;;;;;;;2.65;0.47;;;9.00;85.80;;;;;;5007859;28;20042;-72
2022/02/06 11:51:31;;;;;;;3.45;0.63;;;9.10;85.70;;;;;;5000678;28;20037;-72
2022/02/06 11:53:57;;;;;;;1.90;0.70;;;9.10;85.70;;;;;;4980149;28;20486;-72
2022/02/06 11:56:37;;;;;;;1.20;0.63;;;9.20;86.00;;;;;;4992318;28;20033;-73
2022/02/06 11:59:06;;;;;;;0.88;0.50;;;9.10;86.00;;;;;;4995056;28;20520;-72
2022/02/06 12:01:32;;;;;;;1.20;0.52;;;8.90;86.20;;;;;;4981722;28;20081;-72
2022/02/06 12:04:00;;;;;;;1.15;0.60;;;9.00;87.80;;;;;;4993993;28;20963;-72
2022/02/06 12:06:30;;;;;;;1.08;0.70;;;9.00;87.50;;;;;;4991060;28;20029;-72
2022/02/06 12:08:59;;;;;;;0.45;0.40;;;9.00;87.70;;;;;;5000342;28;20523;-72
2022/02/06 12:11:26;;;;;;;2.33;0.40;;;9.00;88.20;;;;;;4982219;28;20037;-72
2022/02/06 12:14:07;;;;;;;1.77;0.77;;;9.00;88.60;;;;;;4996819;28;20072;-72
2022/02/06 12:16:41;;;;;;;0.85;0.60;;;8.80;89.30;;;;;;4996685;28;20037;-72
2022/02/06 12:19:29;;;;;;;0.95;0.60;;;8.80;90.20;;;;;;4978871;28;20045;-72
2022/02/06 12:21:56;;;;;;;1.40;0.63;;;8.70;90.10;;;;;;4995727;28;20066;-72
2022/02/06 12:24:48;;;;;;;0.45;0.40;;;8.80;90.20;;;;;;4993530;28;20046;-72
2022/02/06 12:27:26;;;;;;;1.85;0.55;;;8.80;90.20;;;;;;4991105;28;20050;-72
2022/02/06 12:30:07;;;;;;;1.95;0.60;;;8.90;90.20;;;;;;4977610;28;20711;-72
2022/02/06 12:32:35;;;;;;;0.85;0.40;;;8.90;90.00;;;;;;4978901;28;20038;-72
2022/02/06 12:37:52;;;;;;;;;;;8.90;89.10;;;;;;4996099;28;20039;-73
2022/02/06 12:40:24;;;;;;;0.32;0.30;;;9.00;89.30;;;;;;4981257;28;20635;-72
2022/02/06 12:42:57;;;;;;;0.85;0.47;;;9.00;88.60;;;;;;4993160;28;20049;-72
2022/02/06 12:45:24;;;;;;;2.25;0.43;;;8.90;88.60;;;;;;4959219;28;20172;-72
2022/02/06 12:47:54;;;;;;;1.20;0.75;;;8.80;88.60;;;;;;4995457;28;20030;-72
2022/02/06 12:50:34;;;;;;;6.60;2.65;;;8.80;88.20;;;;;;4993616;28;20701;-72
2022/02/06 12:53:01;;;;;;;6.38;2.95;;;8.90;88.10;;;;;;4978774;28;20559;-72
2022/02/06 12:55:32;;;;;;;3.65;1.52;;;8.90;87.90;;;;;;4996118;28;20026;-72
2022/02/06 12:57:58;;;;;;;1.10;0.47;;;9.00;87.80;;;;;;4992998;28;20491;-72
2022/02/06 13:00:51;;;;;;;5.28;2.53;;;9.00;86.20;;;;;;4998098;28;20855;-72
2022/02/06 13:03:35;;;;;;;1.38;0.95;;;9.00;86.10;;;;;;4997612;28;20033;-72
2022/02/06 13:06:02;;;;;;;10.00;4.40;;;8.70;86.80;;;;;;4986863;28;20046;-72
2022/02/06 13:08:29;;;;;;;4.20;2.17;;;8.60;87.20;;;;;;4994019;28;20513;-72
2022/02/06 13:11:03;;;;;;;7.03;3.25;;;8.60;87.70;;;;;;4996983;28;20026;-72
2022/02/06 13:13:42;;;;;;;8.50;3.75;;;8.70;86.80;;;;;;4974838;28;20068;-72
2022/02/06 13:18:57;;;;;;;7.30;2.58;;;8.80;86.10;;;;;;4997355;28;20061;-72
2022/02/06 13:21:38;;;;;;;14.50;5.07;;;8.80;86.70;;;;;;4997069;28;20037;-70
2022/02/06 13:32:30;;;;;;;7.95;2.65;;;8.90;85.70;;;;;;4991389;28;20052;-72
2022/02/06 13:34:52;;;;;;;5.35;1.88;;;8.80;85.10;;;;;;4984484;28;20046;-72
2022/02/06 13:37:28;;;;;;;8.30;2.10;;;8.70;86.60;;;;;;4996786;28;20044;-72
2022/02/06 13:40:04;;;;;;;5.50;2.15;;;8.70;87.20;;;;;;4992485;28;20045;-70
2022/02/06 13:42:32;;;;;;;4.70;1.50;;;8.60;87.40;;;;;;4992019;28;20073;-72
2022/02/06 13:45:22;;;;;;;5.15;0.90;;;8.60;87.30;;;;;;4993061;28;20117;-70
2022/02/06 13:47:47;;;;;;;8.75;2.70;;;8.50;86.80;;;;;;4991041;28;20437;-71
2022/02/06 13:50:14;;;;;;;4.07;1.20;;;8.40;87.80;;;;;;4996314;28;20044;-71
2022/02/06 13:52:44;;;;;;;4.82;1.67;;;8.40;87.80;;;;;;4995760;28;20104;-70
2022/02/06 13:55:16;;;;;;;6.60;2.08;;;8.40;88.40;;;;;;4995730;28;20037;-72
2022/02/06 13:57:43;;;;;;;6.63;2.22;;;8.40;88.20;;;;;;4997578;28;20559;-72
2022/02/06 14:00:14;;;;;;;5.82;2.15;;;8.30;89.00;;;;;;4995023;28;20152;-71
2022/02/06 14:02:51;;;;;;;8.75;2.50;;;8.20;90.00;;;;;;4994611;28;20424;-71
2022/02/06 14:05:17;;;;;;;11.73;3.10;;;8.10;89.90;;;;;;4979074;28;20132;-71
2022/02/06 14:07:58;;;;;;;5.57;1.90;;;8.00;90.20;;;;;;4978108;28;20133;-71
2022/02/06 14:10:29;;;;;;;7.35;2.35;;;8.00;90.50;;;;;;4992114;28;20081;-71
2022/02/06 14:12:55;;;;;;;4.25;1.67;;;8.00;90.80;;;;;;4990435;28;20034;-71
2022/02/06 14:15:26;;;;;;;8.88;2.53;;;7.90;91.20;;;;;;4996026;28;20131;-71
2022/02/06 14:17:56;;;;;;;1.98;0.90;;;7.90;91.50;;;;;;5001064;28;20058;-72
2022/02/06 14:20:25;;;;;;;7.43;1.70;;;7.80;91.60;;;;;;4987521;28;20540;-73
2022/02/06 14:22:53;;;;;;;2.60;1.00;;;7.90;91.90;;;;;;5002947;28;20040;-74
2022/02/06 14:25:24;;;;;;;5.03;1.00;;;7.70;91.90;;;;;;4994643;28;20259;-72
2022/02/06 14:27:50;;;;;;;4.57;1.23;;;7.80;92.20;;;;;;4998558;28;20581;-72
2022/02/06 14:30:22;;;;;;;4.28;1.90;;;7.70;92.20;;;;;;4997568;28;20093;-73
2022/02/06 14:33:07;;;;;;;3.00;0.85;;;7.70;92.50;;;;;;4998403;28;20188;-73
2022/02/06 14:35:51;;;;;;;5.75;2.33;;;7.70;92.70;;;;;;4996815;28;20041;-72
2022/02/06 14:38:34;;;;;;;3.53;0.88;;;7.80;92.40;;;;;;4997850;28;20073;-71
2022/02/06 14:43:42;;;;;;;10.52;2.47;;;7.70;93.10;;;;;;4998428;28;20042;-72
2022/02/06 14:46:09;;;;;;;13.85;2.38;;;7.70;93.10;;;;;;4998781;28;20064;-71
2022/02/06 14:48:35;;;;;;;4.00;1.38;;;7.50;93.20;;;;;;4995956;28;20033;-74
2022/02/06 14:51:01;;;;;;;10.82;1.85;;;7.50;93.70;;;;;;4982907;28;20764;-75
2022/02/06 14:53:27;;;;;;;1.95;0.80;;;7.50;93.70;;;;;;4998518;28;20529;-75
2022/02/06 14:55:55;;;;;;;13.00;3.25;;;7.40;93.50;;;;;;4984047;28;20045;-70
2022/02/06 14:58:22;;;;;;;7.55;1.67;;;7.40;94.10;;;;;;4998425;28;20503;-72
2022/02/06 15:00:48;;;;;;;2.97;0.70;;;7.40;94.00;;;;;;4996866;28;20076;-72
2022/02/06 15:03:14;;;;;;;4.80;1.00;;;7.40;94.00;;;;;;4985121;28;20569;-72
2022/02/06 15:05:40;;;;;;;6.38;1.77;;;7.30;94.30;;;;;;4980214;28;20049;-76
2022/02/06 15:08:08;;;;;;;4.72;1.27;;;7.20;94.30;;;;;;4994713;28;20034;-76
2022/02/06 15:10:35;;;;;;;3.17;1.10;;;7.20;94.60;;;;;;5000487;28;20030;-75
2022/02/06 15:13:08;;;;;;;3.15;0.90;;;7.20;94.30;;;;;;4998980;28;20041;-75
2022/02/06 15:15:44;;;;;;;3.30;1.10;;;7.10;94.80;;;;;;4997227;28;20034;-75
2022/02/06 15:18:23;;;;;;;1.58;0.70;;;7.10;94.80;;;;;;4979173;28;20057;-75
2022/02/06 15:20:51;;;;;;;2.00;0.88;;;7.10;94.70;;;;;;4995675;28;20097;-71
2022/02/06 15:23:18;;;;;;;1.50;0.85;;;7.10;94.70;;;;;;4989860;28;20164;-75
2022/02/06 15:25:44;;;;;;;0.45;0.40;;;7.10;94.70;;;;;;4976033;28;20042;-74
2022/02/06 15:28:10;;;;;;;1.70;0.50;;;7.10;94.60;;;;;;4999497;28;20108;-71
2022/02/06 15:30:36;;;;;;;0.50;0.40;;;7.20;94.60;;;;;;4995196;28;20044;-72
2022/02/06 15:33:04;;;;;;;0.45;0.43;;;7.20;94.40;;;;;;4995615;28;20062;-75
2022/02/06 15:35:30;;;;;;;0.98;0.50;;;7.20;94.70;;;;;;4998191;28;20069;-75
2022/02/06 15:37:58;;;;;;;1.58;0.80;;;7.20;94.70;;;;;;4999181;28;20083;-75
2022/02/06 15:40:23;;;;;;;1.10;0.90;;;7.20;94.60;;;;;;5001790;28;20042;-75
2022/02/06 15:42:49;;;;;;;0.45;0.38;;;7.20;94.60;;;;;;4999108;28;20049;-72
2022/02/06 15:45:15;;;;;;;0.38;0.28;;;7.20;94.50;;;;;;4977292;28;20026;-72